Bill Tullier — WDD9253 — position and weather

sailwx.info

Track history (hours):
 
Tides and Currents Weather Stations Pressure Air Temp Water Temp Dewpoint Dewpoint Depression Visibility Wind Speed Wind Dir Waves Ship Positions

Bill Tullier

Owner: Florida Marine, LLC, Mandeville, LA. More information available from US FCC via Universal Licensing System and Coast Guard Vessel Documentation Center.

Last reported at 2018-Jun-25 05:47 UTC. Time now 2018-Jun-25 05:57 UTC.
Position N 29°34' W 090°57'.

Length 27 m; draft 2.9 m.

Type: Towing. MMSI: 367308970.

Date/timePositionNaut miles runAvg speedWind from/ knotsBaromVisibWave heightAir tempDewpointWater temp
2018-Jun-25 05:47N 29°34' W 090°57'2 6.6
2018-Jun-25 05:30N 29°33' W 090°55'3 5.4
2018-Jun-25 04:51N 29°32' W 090°51'2 5.5
2018-Jun-25 04:28N 29°32' W 090°49'2 5.2
2018-Jun-25 04:01N 29°32' W 090°46'2 4.4
2018-Jun-25 03:30N 29°34' W 090°44'2 3.4
2018-Jun-25 03:01N 29°35' W 090°43'2 4.0
2018-Jun-25 02:31N 29°37' W 090°42'0 0.8
2018-Jun-25 02:00N 29°37' W 090°42'2 3.2
2018-Jun-25 01:30N 29°36' W 090°40'2 4.6
2018-Jun-25 01:00N 29°35' W 090°38'2 4.3
2018-Jun-25 00:30N 29°35' W 090°35'2 4.4
2018-Jun-25 00:00N 29°34' W 090°33'2 4.5
2018-Jun-24 23:30N 29°34' W 090°30'  
Track history (hours):
 
Tides and Currents Weather Stations Pressure Air Temp Water Temp Dewpoint Dewpoint Depression Visibility Wind Speed Wind Dir Waves Ship Positions

Bill Tullier

Owner: Florida Marine, LLC, Mandeville, LA. More information available from US FCC via Universal Licensing System and Coast Guard Vessel Documentation Center.

Last reported at 2018-Jun-25 05:47 UTC. Time now 2018-Jun-25 05:57 UTC.
Position N 29°34' W 090°57'.

Length 27 m; draft 2.9 m.

Type: Towing. MMSI: 367308970.

Date/timePositionNaut miles runAvg speedWind from/ knotsBaromVisibWave heightAir tempDewpointWater temp
2018-Jun-25 05:47N 29°34' W 090°57'2 6.6
2018-Jun-25 05:30N 29°33' W 090°55'3 5.4
2018-Jun-25 04:51N 29°32' W 090°51'2 5.5
2018-Jun-25 04:28N 29°32' W 090°49'2 5.2
2018-Jun-25 04:01N 29°32' W 090°46'2 4.4
2018-Jun-25 03:30N 29°34' W 090°44'2 3.4
2018-Jun-25 03:01N 29°35' W 090°43'2 4.0
2018-Jun-25 02:31N 29°37' W 090°42'0 0.8
2018-Jun-25 02:00N 29°37' W 090°42'2 3.2
2018-Jun-25 01:30N 29°36' W 090°40'2 4.6
2018-Jun-25 01:00N 29°35' W 090°38'2 4.3
2018-Jun-25 00:30N 29°35' W 090°35'2 4.4
2018-Jun-25 00:00N 29°34' W 090°33'2 4.5
2018-Jun-24 23:30N 29°34' W 090°30'  

Dump ship's entire track history